Time;durP1;ratioP1;P1;durP2;ratioP2;P2;SDS_P1;SDS_P2;PMS_P1;PMS_P2;Temp;Humidity;BMP_temperature;BMP_pressure;BME280_temperature;BME280_humidity;BME280_pressure;Samples;Min_cycle;Max_cycle;Signal;HPM_P1;HPM_P2
2022/05/05 00:02:19;;;;;;;0.98;0.55;;;;;;;26.10;31.39;102147.97;5053745;28;20475;-44
2022/05/05 00:04:47;;;;;;;0.68;0.68;;;;;;;26.02;31.33;102139.00;5053596;28;20053;-44
2022/05/05 00:07:16;;;;;;;0.68;0.60;;;;;;;26.11;31.28;102154.09;5053235;28;20441;-45
2022/05/05 00:09:43;;;;;;;1.00;0.70;;;;;;;25.97;31.37;102141.53;5052073;28;20040;-45
2022/05/05 00:14:59;;;;;;;2.22;0.68;;;;;;;25.93;31.46;102147.56;5049916;28;20401;-44
2022/05/05 00:17:28;;;;;;;0.40;0.40;;;;;;;25.92;31.61;102137.88;5053495;28;20025;-47
2022/05/05 00:19:56;;;;;;;0.73;0.57;;;;;;;25.85;31.31;102133.34;5051825;28;20502;-44
2022/05/05 00:22:25;;;;;;;0.90;0.57;;;;;;;25.84;31.72;102145.59;5067573;28;20083;-47
2022/05/05 00:24:52;;;;;;;1.45;0.70;;;;;;;25.88;31.35;102149.22;5052958;28;20032;-44
2022/05/05 00:27:22;;;;;;;1.48;0.73;;;;;;;25.81;31.65;102134.13;5053344;28;20029;-44
2022/05/05 00:29:51;;;;;;;5.30;0.90;;;;;;;25.92;31.54;102148.41;5053460;28;20052;-47
2022/05/05 00:32:19;;;;;;;0.85;0.60;;;;;;;25.86;31.30;102141.28;5051908;28;20033;-45
2022/05/05 00:34:48;;;;;;;1.58;0.45;;;;;;;25.88;31.58;102149.22;5053138;28;20029;-45
2022/05/05 00:37:16;;;;;;;0.63;0.57;;;;;;;25.82;31.69;102143.78;5052984;28;20060;-44
2022/05/05 00:39:45;;;;;;;1.42;0.70;;;;;;;25.85;31.30;102149.13;5053038;28;20053;-45
2022/05/05 00:42:14;;;;;;;1.88;0.50;;;;;;;25.82;31.49;102138.53;5053518;28;20029;-46
2022/05/05 00:44:43;;;;;;;0.50;0.50;;;;;;;25.82;31.31;102142.03;5053032;28;20029;-46
2022/05/05 00:47:16;;;;;;;0.50;0.40;;;;;;;25.82;31.39;102136.78;5051958;28;20031;-45
2022/05/05 00:49:49;;;;;;;0.73;0.50;;;;;;;25.81;31.68;102139.38;5053194;28;20033;-45
2022/05/05 00:52:17;;;;;;;0.77;0.40;;;;;;;25.78;31.48;102154.22;5068496;28;20164;-45
2022/05/05 00:54:46;;;;;;;0.80;0.50;;;;;;;25.78;31.53;102150.72;5052934;28;20021;-45
2022/05/05 00:57:15;;;;;;;0.65;0.55;;;;;;;25.77;31.63;102154.22;5051760;28;20037;-44
2022/05/05 00:59:43;;;;;;;0.77;0.60;;;;;;;25.76;31.65;102155.06;5053040;28;20048;-44
2022/05/05 01:02:12;;;;;;;0.40;0.40;;;;;;;25.77;31.37;102147.19;5052782;28;20025;-44
2022/05/05 01:04:41;;;;;;;0.45;0.45;;;;;;;25.76;31.38;102145.41;5051501;28;20029;-44
2022/05/05 01:07:10;;;;;;;0.60;0.60;;;;;;;25.75;31.34;102153.28;5034939;28;20447;-44
2022/05/05 01:09:38;;;;;;;0.60;0.40;;;;;;;25.76;31.19;102157.69;5052453;28;20032;-44
2022/05/05 01:12:07;;;;;;;2.63;0.50;;;;;;;25.69;31.43;102146.13;5053069;28;20024;-44
2022/05/05 01:14:35;;;;;;;0.80;0.40;;;;;;;25.72;31.51;102147.94;5051808;28;20029;-46
2022/05/05 01:17:04;;;;;;;0.95;0.73;;;;;;;25.76;31.43;102153.31;5068040;28;20028;-44
2022/05/05 01:19:33;;;;;;;0.70;0.43;;;;;;;25.69;31.26;102155.75;5051438;28;20025;-47
2022/05/05 01:22:03;;;;;;;0.47;0.47;;;;;;;25.70;31.48;102149.63;5051790;28;20144;-44
2022/05/05 01:30:06;;;;;;;0.30;0.30;;;;;;;25.67;31.43;102149.56;5047789;28;20033;-44
2022/05/05 01:32:35;;;;;;;0.40;0.40;;;;;;;25.62;31.70;102144.19;5053759;28;20029;-44
2022/05/05 01:35:04;;;;;;;0.40;0.40;;;;;;;25.61;31.42;102156.47;5056539;28;20057;-44
2022/05/05 01:37:32;;;;;;;1.30;0.77;;;;;;;25.56;31.62;102150.19;5054850;28;20040;-47
2022/05/05 01:40:01;;;;;;;0.40;0.30;;;;;;;25.52;31.68;102148.31;5056366;28;20103;-45
2022/05/05 01:42:30;;;;;;;0.80;0.43;;;;;;;25.48;31.74;102151.75;5038532;28;20538;-45
2022/05/05 01:44:58;;;;;;;0.60;0.40;;;;;;;25.56;31.59;102160.69;5056089;28;20068;-44
2022/05/05 01:47:27;;;;;;;1.88;0.50;;;;;;;25.54;31.86;102162.41;5056245;28;20116;-44
2022/05/05 01:49:59;;;;;;;1.45;0.60;;;;;;;25.53;31.52;102154.50;5056189;28;20025;-44
2022/05/05 01:52:29;;;;;;;0.68;0.55;;;;;;;25.53;31.82;102157.13;5056230;28;20029;-44
2022/05/05 01:54:57;;;;;;;0.63;0.47;;;;;;;25.51;31.40;102161.44;5054673;28;20056;-45
2022/05/05 01:57:26;;;;;;;0.82;0.52;;;;;;;25.38;31.40;102128.66;5071205;28;20100;-46
2022/05/05 01:59:54;;;;;;;0.60;0.50;;;;;;;25.45;31.68;102141.16;5054746;28;20075;-44
2022/05/05 02:02:23;;;;;;;0.50;0.45;;;;;;;25.47;31.36;102147.34;5071395;28;20370;-44
2022/05/05 02:04:51;;;;;;;1.70;0.47;;;;;;;25.47;31.81;102152.59;5071452;28;20029;-46
2022/05/05 02:07:20;;;;;;;0.80;0.52;;;;;;;25.48;31.68;102154.38;5055816;28;20029;-44
2022/05/05 02:09:48;;;;;;;0.52;0.30;;;;;;;25.45;31.66;102156.91;5054514;28;20101;-44
2022/05/05 02:12:17;;;;;;;0.88;0.50;;;;;;;25.43;31.71;102150.75;5054323;28;20482;-45
2022/05/05 02:14:46;;;;;;;1.00;0.68;;;;;;;25.45;31.39;102141.16;5054340;28;20036;-44
2022/05/05 02:17:14;;;;;;;0.70;0.40;;;;;;;25.45;31.49;102149.91;5055612;28;20032;-44
2022/05/05 02:19:43;;;;;;;4.68;0.57;;;;;;;25.42;31.39;102151.59;5071256;28;21078;-45
2022/05/05 02:22:11;;;;;;;0.35;0.35;;;;;;;25.44;31.63;102152.50;5055534;28;20052;-44
2022/05/05 02:24:39;;;;;;;0.43;0.35;;;;;;;25.43;31.58;102159.50;5055632;28;20053;-44
2022/05/05 02:27:08;;;;;;;1.38;0.40;;;;;;;25.39;31.25;102157.63;5055428;28;20024;-44
2022/05/05 02:29:37;;;;;;;0.40;0.40;;;;;;;25.37;31.52;102159.31;5054991;28;20134;-44
2022/05/05 02:32:06;;;;;;;0.65;0.30;;;;;;;25.38;31.42;102155.84;5055287;28;20504;-44
2022/05/05 02:34:34;;;;;;;0.45;0.38;;;;;;;25.36;31.55;102159.25;5070848;28;20028;-47
2022/05/05 02:39:50;;;;;;;0.40;0.40;;;;;;;25.38;31.42;102155.84;5054436;28;20037;-44
2022/05/05 02:42:20;;;;;;;0.88;0.47;;;;;;;25.31;31.33;102148.63;5055209;28;20461;-45
2022/05/05 02:44:49;;;;;;;0.70;0.20;;;;;;;25.34;31.45;102159.22;5052988;28;20028;-47
2022/05/05 02:47:17;;;;;;;0.73;0.50;;;;;;;25.29;31.50;102143.38;5053580;28;20060;-44
2022/05/05 02:49:46;;;;;;;0.40;0.38;;;;;;;25.30;31.64;102145.13;5053979;28;20057;-43
2022/05/05 02:52:14;;;;;;;1.02;0.40;;;;;;;25.29;31.50;102152.97;5054990;28;20083;-47
2022/05/05 02:54:52;;;;;;;2.08;0.40;;;;;;;25.31;31.69;102157.44;5054570;28;20056;-46
2022/05/05 02:57:22;;;;;;;0.82;0.38;;;;;;;25.33;31.09;102154.81;5054778;28;20433;-44
2022/05/05 02:59:53;;;;;;;0.50;0.50;;;;;;;25.30;31.62;102144.22;5054960;28;20414;-45
2022/05/05 03:02:22;;;;;;;0.43;0.40;;;;;;;25.33;31.48;102150.44;5054904;28;20024;-48
2022/05/05 03:04:50;;;;;;;0.85;0.50;;;;;;;25.32;31.28;102145.16;5054573;28;20032;-48
2022/05/05 03:07:19;;;;;;;0.60;0.40;;;;;;;25.13;31.20;102123.69;5054574;28;20132;-44
2022/05/05 03:09:48;;;;;;;0.43;0.40;;;;;;;25.28;31.53;102146.84;5054646;28;20032;-49
2022/05/05 03:12:16;;;;;;;0.32;0.20;;;;;;;25.30;31.16;102147.75;5054632;28;20037;-46
2022/05/05 03:14:46;;;;;;;0.38;0.38;;;;;;;25.31;31.36;102138.13;5054541;28;20021;-50
2022/05/05 03:17:15;;;;;;;0.30;0.30;;;;;;;25.30;31.17;102144.22;5054462;28;20057;-51
2022/05/05 03:19:44;;;;;;;0.65;0.38;;;;;;;25.30;31.16;102146.88;5054362;28;20029;-50
2022/05/05 03:22:12;;;;;;;0.52;0.50;;;;;;;25.26;31.22;102139.75;5052912;28;20025;-44
2022/05/05 03:24:40;;;;;;;0.30;0.30;;;;;;;25.28;31.10;102144.22;5054261;28;20079;-46
2022/05/05 03:27:08;;;;;;;0.40;0.40;;;;;;;25.28;31.05;102146.84;5054158;28;20059;-46
2022/05/05 03:29:37;;;;;;;0.63;0.52;;;;;;;25.27;31.11;102149.41;5052984;28;20029;-45
2022/05/05 03:32:05;;;;;;;1.05;0.40;;;;;;;25.12;31.52;102123.66;5054115;28;20471;-47
2022/05/05 03:34:33;;;;;;;0.40;0.40;;;;;;;25.22;31.08;102146.66;5054076;28;20466;-45
2022/05/05 03:37:02;;;;;;;1.40;0.50;;;;;;;25.26;31.27;102161.66;5053884;28;20029;-46
2022/05/05 03:39:31;;;;;;;0.47;0.40;;;;;;;25.26;31.38;102161.66;5069435;28;20025;-45
2022/05/05 03:41:59;;;;;;;1.23;0.60;;;;;;;25.27;31.11;102163.44;5053804;28;20467;-51
2022/05/05 03:44:28;;;;;;;0.30;0.30;;;;;;;25.21;31.14;102155.38;5053604;28;20032;-45
2022/05/05 03:46:56;;;;;;;0.65;0.50;;;;;;;25.22;31.44;102154.53;5053684;28;20394;-43
2022/05/05 03:49:25;;;;;;;0.60;0.60;;;;;;;25.22;31.45;102156.28;5054018;28;20024;-47
2022/05/05 03:51:55;;;;;;;3.80;0.60;;;;;;;25.20;31.49;102153.59;5053834;28;20108;-49
2022/05/05 03:54:25;;;;;;;0.50;0.40;;;;;;;25.23;31.38;102156.31;5053946;28;20029;-44
2022/05/05 03:56:54;;;;;;;0.43;0.22;;;;;;;25.21;31.35;102150.13;5053716;28;20025;-45
2022/05/05 03:59:22;;;;;;;1.52;0.50;;;;;;;25.21;31.10;102150.13;5053903;28;20131;-48
2022/05/05 04:01:51;;;;;;;0.50;0.30;;;;;;;25.22;31.26;102153.66;5053896;28;20032;-44
2022/05/05 04:04:20;;;;;;;0.30;0.30;;;;;;;25.21;31.29;102152.75;5053373;28;20103;-47
2022/05/05 04:06:49;;;;;;;0.25;0.20;;;;;;;25.25;31.06;102152.00;5053565;28;20045;-46
2022/05/05 04:09:17;;;;;;;0.45;0.30;;;;;;;25.14;30.96;102140.34;5053422;28;20032;-44
2022/05/05 04:11:46;;;;;;;0.70;0.40;;;;;;;25.24;31.39;102151.94;5053806;28;20021;-46
2022/05/05 04:14:12;;;;;;;0.30;0.30;;;;;;;25.24;31.32;102160.72;5053478;28;20025;-48
2022/05/05 04:16:43;;;;;;;0.88;0.40;;;;;;;25.24;30.97;102158.09;5052195;28;20032;-44
2022/05/05 04:19:11;;;;;;;1.00;0.20;;;;;;;25.28;31.32;102159.97;5053343;28;20097;-47
2022/05/05 04:21:40;;;;;;;0.77;0.40;;;;;;;25.27;31.17;102154.66;5068627;28;20505;-44
2022/05/05 04:24:08;;;;;;;0.40;0.38;;;;;;;25.25;31.40;102157.25;5053425;28;20479;-49
2022/05/05 04:26:36;;;;;;;0.75;0.30;;;;;;;25.23;31.14;102152.81;5053223;28;20150;-45
2022/05/05 04:29:05;;;;;;;0.35;0.22;;;;;;;25.18;31.45;102152.66;5051769;28;20028;-48
2022/05/05 04:31:34;;;;;;;7.60;0.30;;;;;;;25.35;30.85;102161.00;5051904;28;20017;-45
2022/05/05 04:34:04;;;;;;;2.80;0.40;;;;;;;25.27;30.76;102152.94;5053151;28;20035;-45
2022/05/05 04:36:35;;;;;;;0.88;0.40;;;;;;;25.28;31.01;102165.22;5052593;28;20039;-49
2022/05/05 04:39:05;;;;;;;0.77;0.50;;;;;;;25.29;31.15;102166.09;5051775;28;20021;-48
2022/05/05 04:41:33;;;;;;;1.55;0.40;;;;;;;25.34;30.94;102173.25;5052794;28;20124;-51
2022/05/05 04:44:01;;;;;;;0.40;0.35;;;;;;;25.38;31.14;102171.59;5052953;28;20037;-44
2022/05/05 04:46:29;;;;;;;0.47;0.40;;;;;;;25.44;30.98;102165.66;5052857;28;20102;-46
2022/05/05 04:48:57;;;;;;;0.55;0.40;;;;;;;25.38;30.73;102168.97;5052699;28;20029;-47
2022/05/05 04:51:24;;;;;;;13.25;0.45;;;;;;;25.43;30.94;102166.50;5035352;28;20032;-44
2022/05/05 04:53:52;;;;;;;3.17;0.52;;;;;;;25.46;30.61;102175.34;5068303;28;20115;-44
2022/05/05 04:56:21;;;;;;;0.90;0.30;;;;;;;25.38;31.05;102171.59;5053064;28;20029;-44
2022/05/05 04:58:48;;;;;;;0.68;0.30;;;;;;;25.43;31.14;102177.00;5052834;28;20478;-44
2022/05/05 05:01:15;;;;;;;0.30;0.30;;;;;;;25.32;30.97;102177.56;5051898;28;20025;-44
2022/05/05 05:03:43;;;;;;;1.17;0.40;;;;;;;25.35;30.88;102187.28;5052831;28;20073;-45
2022/05/05 05:06:10;;;;;;;3.05;0.47;;;;;;;25.34;30.81;102190.75;5052822;28;20387;-44
2022/05/05 05:08:39;;;;;;;0.63;0.30;;;;;;;25.32;30.95;102193.31;5055674;28;20028;-44
2022/05/05 05:11:08;;;;;;;0.22;0.22;;;;;;;25.25;30.54;102191.41;5056637;28;20495;-46
2022/05/05 05:13:36;;;;;;;0.95;0.47;;;;;;;25.20;30.74;102193.00;5056947;28;20029;-44
2022/05/05 05:16:05;;;;;;;1.95;0.30;;;;;;;25.22;30.53;102193.06;5056499;28;20025;-44
2022/05/05 05:18:34;;;;;;;2.53;0.32;;;;;;;25.20;31.08;102195.63;5056668;28;20445;-48
2022/05/05 05:21:02;;;;;;;0.68;0.38;;;;;;;25.22;30.74;102198.31;5056571;28;20040;-44
2022/05/05 05:23:30;;;;;;;1.25;0.40;;;;;;;25.20;30.74;102197.38;5056292;28;20056;-44
2022/05/05 05:25:58;;;;;;;0.65;0.40;;;;;;;25.26;30.70;102205.41;5056581;28;20025;-46
2022/05/05 05:28:27;;;;;;;0.82;0.50;;;;;;;25.29;30.70;102209.03;5056573;28;20419;-45
2022/05/05 05:30:54;;;;;;;0.85;0.40;;;;;;;25.28;30.93;102212.50;5056263;28;20418;-45
2022/05/05 05:33:22;;;;;;;1.77;0.40;;;;;;;25.32;30.89;102216.97;5056628;28;20053;-45
2022/05/05 05:35:51;;;;;;;8.82;0.60;;;;;;;25.33;30.65;102216.13;5056303;28;20031;-44
2022/05/05 05:38:20;;;;;;;1.63;0.60;;;;;;;25.27;31.01;102215.97;5056279;28;20083;-45
2022/05/05 05:40:49;;;;;;;2.53;0.60;;;;;;;25.27;31.27;102222.94;5056235;28;20434;-43
2022/05/05 05:43:17;;;;;;;2.30;0.82;;;;;;;25.21;31.09;102213.16;5056383;28;20036;-44
2022/05/05 05:45:46;;;;;;;3.28;1.02;;;;;;;25.22;31.30;102228.06;5056163;28;20037;-44
2022/05/05 05:48:15;;;;;;;6.30;0.80;;;;;;;25.16;31.17;102234.03;5055944;28;20418;-44
2022/05/05 05:50:43;;;;;;;3.10;0.80;;;;;;;25.22;31.14;102238.56;5055746;28;20036;-45
2022/05/05 05:53:13;;;;;;;2.42;0.55;;;;;;;25.24;31.22;102239.50;5054938;28;20166;-47
2022/05/05 05:55:41;;;;;;;6.38;0.98;;;;;;;25.16;31.37;102239.31;5055709;28;20068;-45
2022/05/05 05:58:08;;;;;;;5.47;0.70;;;;;;;25.21;31.08;102242.03;5055936;28;20033;-44
2022/05/05 06:00:38;;;;;;;3.22;0.55;;;;;;;25.26;31.01;102250.06;5055778;28;20479;-44
2022/05/05 06:05:53;;;;;;;3.92;0.50;;;;;;;25.24;31.17;102260.53;5051472;28;20033;-44
2022/05/05 06:08:21;;;;;;;4.35;0.82;;;;;;;25.29;30.97;102247.50;5055490;28;20508;-44
2022/05/05 06:10:49;;;;;;;1.98;0.70;;;;;;;25.34;31.27;102264.31;5071103;28;20467;-46
2022/05/05 06:13:17;;;;;;;4.32;0.57;;;;;;;25.33;31.10;102259.88;5055943;28;20064;-44
2022/05/05 06:15:45;;;;;;;6.85;0.60;;;;;;;25.30;31.22;102251.91;5055234;28;20025;-44
2022/05/05 06:18:14;;;;;;;1.45;0.63;;;;;;;25.36;30.84;102259.97;5055249;28;20154;-43
2022/05/05 06:20:42;;;;;;;5.07;0.60;;;;;;;25.32;30.85;102258.97;5054480;28;20040;-49
2022/05/05 06:23:11;;;;;;;1.13;0.52;;;;;;;25.32;30.92;102251.09;5054951;28;20498;-45
2022/05/05 06:25:39;;;;;;;3.15;0.60;;;;;;;25.35;30.94;102260.81;5055488;28;20029;-48
2022/05/05 06:28:06;;;;;;;0.88;0.40;;;;;;;25.36;31.13;102254.72;5055224;28;20071;-46
2022/05/05 06:30:33;;;;;;;4.43;0.45;;;;;;;25.40;31.09;102260.94;5055232;28;20048;-45
2022/05/05 06:33:00;;;;;;;4.00;0.55;;;;;;;25.37;31.18;102259.13;5055231;28;20029;-51
2022/05/05 06:35:28;;;;;;;3.50;0.52;;;;;;;25.39;30.90;102264.41;5055100;28;20025;-48
2022/05/05 06:37:56;;;;;;;4.35;0.70;;;;;;;25.36;30.78;102261.69;5055107;28;20045;-46
2022/05/05 06:40:24;;;;;;;0.73;0.50;;;;;;;25.39;31.02;102267.03;5054775;28;20029;-49
2022/05/05 06:42:52;;;;;;;3.22;0.50;;;;;;;25.40;31.29;102266.19;5054988;28;20036;-47
2022/05/05 06:45:22;;;;;;;0.70;0.40;;;;;;;25.38;31.23;102267.91;5054700;28;20086;-48
2022/05/05 06:47:51;;;;;;;3.10;0.55;;;;;;;25.39;30.97;102267.94;5054898;28;20087;-46
2022/05/05 06:50:21;;;;;;;1.35;0.60;;;;;;;25.39;31.25;102267.94;5055067;28;20029;-46
2022/05/05 06:52:50;;;;;;;1.30;0.57;;;;;;;25.36;31.04;102269.59;5054868;28;20497;-47
2022/05/05 06:55:19;;;;;;;2.40;0.65;;;;;;;25.30;31.44;102271.22;5054277;28;20028;-45
2022/05/05 06:57:47;;;;;;;2.05;0.50;;;;;;;25.34;31.31;102267.81;5053526;28;20036;-45
2022/05/05 07:00:17;;;;;;;3.63;0.68;;;;;;;25.35;31.46;102273.97;5054901;28;20028;-45
2022/05/05 07:02:44;;;;;;;1.65;0.70;;;;;;;25.32;31.31;102264.25;5054800;28;20095;-44
2022/05/05 07:05:27;;;;;;;1.55;0.40;;;;;;;25.33;31.63;102271.28;5054091;28;20721;-46
2022/05/05 07:07:55;;;;;;;2.15;0.90;;;;;;;25.34;31.62;102280.94;5054369;28;20029;-44
2022/05/05 07:11:06;;;;;;;3.47;0.65;;;;;;;25.34;31.57;102275.69;5054561;28;20087;-43
2022/05/05 07:13:12;;;;;;;2.25;0.80;;;;;;;25.34;31.61;102278.31;5054139;28;20040;-45
2022/05/05 07:15:41;;;;;;;2.85;0.80;;;;;;;25.35;31.71;102284.47;5054383;28;20024;-47
2022/05/05 07:18:08;;;;;;;5.05;0.88;;;;;;;25.38;31.54;102292.44;5054621;28;20036;-44
2022/05/05 07:20:36;;;;;;;2.10;0.70;;;;;;;25.41;31.38;102292.50;5054118;28;20056;-44
2022/05/05 07:23:07;;;;;;;5.10;1.17;;;;;;;25.24;31.60;102284.16;5052766;28;20025;-48
2022/05/05 07:25:35;;;;;;;1.25;0.55;;;;;;;25.26;31.48;102297.31;5054327;28;20029;-46
2022/05/05 07:28:03;;;;;;;0.95;0.40;;;;;;;25.28;31.37;102295.63;5054080;28;20055;-44
2022/05/05 07:30:31;;;;;;;5.53;0.77;;;;;;;25.28;31.93;102291.28;5053806;28;20115;-44
2022/05/05 07:33:00;;;;;;;3.80;0.60;;;;;;;25.32;31.75;102303.63;5054196;28;20036;-45
2022/05/05 07:35:29;;;;;;;2.72;0.60;;;;;;;25.27;31.74;102299.09;5053899;28;20028;-48
2022/05/05 07:37:57;;;;;;;3.35;0.70;;;;;;;25.29;31.89;102292.16;5054045;28;20028;-44
2022/05/05 07:40:26;;;;;;;8.23;0.80;;;;;;;25.34;31.67;102303.69;5052896;28;20504;-45
2022/05/05 07:42:54;;;;;;;2.70;0.80;;;;;;;25.36;31.52;102298.47;5053694;28;20029;-45
2022/05/05 07:45:23;;;;;;;3.30;1.10;;;;;;;25.36;31.41;102309.91;5053173;28;20051;-51
2022/05/05 07:47:52;;;;;;;0.93;0.60;;;;;;;25.36;31.45;102306.34;5053834;28;20032;-45
2022/05/05 07:50:20;;;;;;;2.30;0.73;;;;;;;25.37;31.51;102313.38;5053969;28;20478;-44
2022/05/05 07:52:49;;;;;;;2.88;1.08;;;;;;;25.41;31.30;102318.78;5053860;28;20139;-49
2022/05/05 07:55:17;;;;;;;1.45;1.00;;;;;;;25.41;31.63;102318.78;5053833;28;20103;-46
2022/05/05 07:57:47;;;;;;;4.75;0.88;;;;;;;25.39;31.78;102320.50;5053165;28;20037;-49
2022/05/05 08:00:16;;;;;;;2.17;0.60;;;;;;;25.24;31.74;102293.75;5054154;28;20035;-48
2022/05/05 08:02:45;;;;;;;2.38;0.90;;;;;;;25.40;31.87;102309.09;5053686;28;20025;-44
2022/05/05 08:05:14;;;;;;;4.45;0.98;;;;;;;25.42;31.77;102315.34;5054012;28;20028;-46
2022/05/05 08:07:45;;;;;;;2.25;0.82;;;;;;;25.44;31.68;102316.28;5053330;28;20072;-44
2022/05/05 08:10:14;;;;;;;3.25;1.15;;;;;;;25.44;31.78;102318.03;5053357;28;20021;-44
2022/05/05 08:12:42;;;;;;;8.00;1.35;;;;;;;25.44;31.86;102318.03;5053609;28;20375;-44
2022/05/05 08:15:10;;;;;;;1.55;1.00;;;;;;;25.45;32.00;102312.78;5053190;28;20021;-45
2022/05/05 08:17:39;;;;;;;3.65;0.90;;;;;;;25.47;31.83;102312.84;5053586;28;20025;-45
2022/05/05 08:20:08;;;;;;;3.20;0.85;;;;;;;25.47;31.47;102323.38;5053233;28;20120;-47
2022/05/05 08:22:37;;;;;;;1.92;0.80;;;;;;;25.46;31.81;102316.34;5053373;28;20025;-48
2022/05/05 08:28:36;;;;;;;2.60;1.10;;;;;;;25.51;31.66;102329.59;5052822;28;20045;-50
2022/05/05 08:30:42;;;;;;;2.45;0.93;;;;;;;25.51;31.87;102325.22;5052882;28;20339;-45
2022/05/05 08:33:10;;;;;;;2.83;0.73;;;;;;;25.52;32.02;102327.00;5053253;28;20078;-45
2022/05/05 08:35:41;;;;;;;2.42;0.60;;;;;;;25.53;31.58;102320.88;5052979;28;20112;-49
2022/05/05 08:38:10;;;;;;;1.08;0.68;;;;;;;25.51;31.83;102319.09;5053373;28;20474;-45
2022/05/05 08:40:41;;;;;;;3.35;0.50;;;;;;;25.53;31.58;102315.63;5053219;28;20036;-44
2022/05/05 08:43:10;;;;;;;1.38;0.60;;;;;;;25.51;31.63;102312.06;5067726;28;20477;-51
2022/05/05 08:45:40;;;;;;;3.15;0.50;;;;;;;25.53;31.88;102317.38;5052812;28;20116;-47
2022/05/05 08:48:10;;;;;;;2.13;0.70;;;;;;;25.55;31.76;102313.94;5051604;28;20025;-44
2022/05/05 08:50:40;;;;;;;2.22;0.80;;;;;;;25.53;31.69;102320.03;5053003;28;20021;-46
2022/05/05 08:53:09;;;;;;;2.30;0.60;;;;;;;25.57;31.72;102324.50;5052977;28;20108;-48
2022/05/05 08:55:37;;;;;;;2.17;0.60;;;;;;;25.54;31.81;102322.69;5052547;28;20390;-48
2022/05/05 08:58:06;;;;;;;1.85;0.50;;;;;;;25.58;32.09;102326.28;5052844;28;20036;-51
2022/05/05 09:00:36;;;;;;;0.47;0.47;;;;;;;25.59;31.65;102314.91;5053162;28;20033;-45
2022/05/05 09:03:08;;;;;;;2.90;0.90;;;;;;;25.59;31.92;102322.78;5053123;28;20033;-48
2022/05/05 09:05:47;;;;;;;2.35;0.73;;;;;;;25.62;31.81;102322.88;5052891;28;20068;-44
2022/05/05 09:08:30;;;;;;;1.65;0.55;;;;;;;25.61;32.06;102315.84;5035181;28;20048;-45
2022/05/05 09:11:10;;;;;;;2.45;0.65;;;;;;;25.66;31.79;102321.22;5053201;28;20494;-47
2022/05/05 09:13:40;;;;;;;0.80;0.50;;;;;;;25.66;31.43;102321.22;5051718;28;20025;-45
2022/05/05 09:16:10;;;;;;;1.48;0.50;;;;;;;25.69;31.95;102334.44;5052765;28;20444;-46
2022/05/05 09:18:41;;;;;;;0.82;0.52;;;;;;;25.67;31.84;102328.25;5052690;28;20108;-48
2022/05/05 09:21:10;;;;;;;0.95;0.40;;;;;;;25.67;31.58;102326.53;5052564;28;20133;-44
2022/05/05 09:26:27;;;;;;;3.38;0.50;;;;;;;25.72;31.81;102329.28;5049115;28;20052;-46
2022/05/05 09:28:56;;;;;;;4.30;0.77;;;;;;;25.69;31.72;102327.47;5052577;28;20021;-45
2022/05/05 09:31:25;;;;;;;0.63;0.40;;;;;;;25.63;31.96;102322.03;5052246;28;20025;-45
2022/05/05 09:33:53;;;;;;;1.45;0.52;;;;;;;25.69;31.85;102324.84;5052200;28;20033;-47
2022/05/05 09:36:31;;;;;;;1.20;0.50;;;;;;;25.72;31.63;102326.66;5052351;28;20099;-46
2022/05/05 09:39:03;;;;;;;0.77;0.40;;;;;;;25.69;31.68;102322.22;5052585;28;20025;-48
2022/05/05 09:41:33;;;;;;;1.17;0.30;;;;;;;25.73;31.85;102318.81;5051485;28;20176;-44
2022/05/05 09:44:21;;;;;;;1.75;0.30;;;;;;;25.74;31.68;102324.97;5051528;28;20021;-47
2022/05/05 09:46:50;;;;;;;0.77;0.45;;;;;;;25.74;31.73;102324.97;5052395;28;20040;-45
2022/05/05 09:49:20;;;;;;;0.85;0.40;;;;;;;25.76;31.90;102325.91;5052484;28;20044;-44
2022/05/05 09:57:49;;;;;;;0.85;0.47;;;;;;;25.83;31.68;102326.94;5052080;28;20037;-45
2022/05/05 10:01:05;;;;;;;0.93;0.50;;;;;;;25.81;31.48;102328.66;5055707;28;20048;-50
2022/05/05 10:05:54;;;;;;;0.57;0.35;;;;;;;25.76;31.81;102302.25;5055535;28;20112;-47
2022/05/05 10:08:35;;;;;;;0.30;0.30;;;;;;;25.86;31.92;102324.41;5055867;28;20025;-44
2022/05/05 10:11:14;;;;;;;0.47;0.40;;;;;;;25.85;31.73;102317.38;5055724;28;20029;-45
2022/05/05 10:13:45;;;;;;;1.05;0.38;;;;;;;25.67;31.89;102296.72;5056141;28;20493;-47
2022/05/05 10:16:15;;;;;;;1.42;0.80;;;;;;;25.84;31.66;102320.84;5055934;28;20025;-46
2022/05/05 10:18:44;;;;;;;1.45;0.38;;;;;;;25.80;31.71;102327.78;5055668;28;20029;-44
2022/05/05 10:21:31;;;;;;;0.82;0.50;;;;;;;25.81;31.85;102337.44;5055598;28;20585;-47
2022/05/05 10:24:15;;;;;;;0.57;0.40;;;;;;;25.80;31.81;102333.03;5055672;28;20402;-44
2022/05/05 10:26:44;;;;;;;0.43;0.30;;;;;;;25.91;31.99;102338.53;5054499;28;20037;-49
2022/05/05 10:29:32;;;;;;;1.23;0.52;;;;;;;25.93;31.66;102334.22;5055350;28;20379;-46
2022/05/05 10:32:11;;;;;;;0.85;0.40;;;;;;;25.94;31.81;102342.16;5049963;28;20040;-44
2022/05/05 10:34:42;;;;;;;0.50;0.40;;;;;;;25.93;31.61;102332.50;5055514;28;20398;-45
2022/05/05 10:37:13;;;;;;;0.30;0.30;;;;;;;25.88;31.98;102331.47;5055127;28;20053;-44
2022/05/05 10:39:43;;;;;;;1.10;0.40;;;;;;;25.97;31.70;102329.97;5055481;28;20025;-46
2022/05/05 10:42:17;;;;;;;1.85;0.30;;;;;;;25.96;32.07;102333.44;5055086;28;20478;-46
2022/05/05 10:45:09;;;;;;;2.42;0.47;;;;;;;26.03;31.67;102333.63;5055256;28;20107;-44
2022/05/05 10:48:06;;;;;;;0.60;0.50;;;;;;;26.05;31.76;102344.19;5054578;28;20486;-44
2022/05/05 10:50:43;;;;;;;1.08;0.43;;;;;;;26.04;31.67;102339.75;5054952;28;20394;-44
2022/05/05 10:53:27;;;;;;;0.95;0.60;;;;;;;26.02;31.62;102336.19;5055201;28;20107;-44
2022/05/05 10:55:56;;;;;;;1.17;0.40;;;;;;;25.98;31.81;102344.88;5054994;28;20025;-44
2022/05/05 10:59:03;;;;;;;0.57;0.40;;;;;;;26.05;31.69;102328.41;5054886;28;20043;-45
2022/05/05 11:01:51;;;;;;;0.95;0.35;;;;;;;26.02;31.85;102326.59;5053592;28;20025;-44
2022/05/05 11:04:20;;;;;;;2.38;0.30;;;;;;;26.04;31.90;102326.63;5054715;28;20025;-44
2022/05/05 11:06:49;;;;;;;0.88;0.40;;;;;;;26.07;31.87;102329.34;5054061;28;20112;-45
2022/05/05 11:09:37;;;;;;;0.20;0.20;;;;;;;26.03;31.94;102323.13;5053359;28;20037;-49
2022/05/05 11:12:24;;;;;;;1.60;0.50;;;;;;;26.03;32.08;102324.84;5053689;28;20029;-52
2022/05/05 11:21:36;;;;;;;0.38;0.30;;;;;;;26.14;31.84;102322.53;5054207;28;20041;-48
2022/05/05 11:23:50;;;;;;;0.90;0.40;;;;;;;26.16;31.86;102311.19;5054100;28;20040;-48
2022/05/05 11:26:20;;;;;;;0.32;0.28;;;;;;;26.12;31.91;102309.34;5054213;28;20021;-44
2022/05/05 11:28:50;;;;;;;1.17;0.30;;;;;;;26.12;31.98;102311.06;5054259;28;20052;-46
2022/05/05 11:31:19;;;;;;;0.77;0.47;;;;;;;26.15;31.91;102311.16;5053970;28;20025;-49
2022/05/05 11:34:06;;;;;;;0.30;0.30;;;;;;;26.12;31.86;102318.97;5054209;28;20044;-50
2022/05/05 11:36:37;;;;;;;0.57;0.32;;;;;;;26.19;31.94;102316.50;5054433;28;20035;-45
2022/05/05 11:39:07;;;;;;;0.77;0.20;;;;;;;26.17;31.90;102320.84;5036730;28;20474;-46
2022/05/05 11:41:36;;;;;;;0.90;0.30;;;;;;;26.12;32.01;102326.84;5054215;28;20162;-47
2022/05/05 11:44:25;;;;;;;3.58;0.60;;;;;;;26.12;32.01;102319.88;5054288;28;20078;-47
2022/05/05 11:46:53;;;;;;;0.30;0.30;;;;;;;26.14;32.05;102322.53;5053929;28;20055;-44
2022/05/05 11:49:22;;;;;;;0.40;0.30;;;;;;;26.11;32.07;102327.66;5053796;28;20044;-47
2022/05/05 11:51:51;;;;;;;0.50;0.30;;;;;;;26.08;31.88;102317.97;5054060;28;20021;-51
2022/05/05 11:54:27;;;;;;;0.60;0.40;;;;;;;26.12;32.13;102317.22;5053839;28;20386;-48
2022/05/05 11:56:56;;;;;;;1.02;0.60;;;;;;;26.16;32.14;102328.72;5053907;28;20071;-52
2022/05/05 12:02:16;;;;;;;0.30;0.30;;;;;;;26.16;31.94;102324.31;5053198;28;20084;-49
2022/05/05 12:04:45;;;;;;;0.93;0.32;;;;;;;26.14;31.69;102318.16;5054068;28;20025;-46
2022/05/05 12:07:25;;;;;;;0.65;0.30;;;;;;;26.18;32.08;102324.38;5053649;28;20032;-44
2022/05/05 12:09:55;;;;;;;0.38;0.38;;;;;;;26.24;31.81;102322.78;5052318;28;20033;-45
2022/05/05 12:12:26;;;;;;;0.30;0.30;;;;;;;26.23;31.99;102326.28;5053487;28;20021;-47
2022/05/05 12:15:02;;;;;;;1.08;0.28;;;;;;;26.20;31.74;102326.19;5053310;28;20321;-44
2022/05/05 12:17:39;;;;;;;0.77;0.40;;;;;;;26.27;31.91;102323.72;5052676;28;20029;-44